Strona główna
METAR-TAF:

METAR-TAF

Lotnisko :

Port lotniczy Bornholm

Rønne, Dania

Szerokość geograficzna: 55-04N, Długość geograficzna: 014-45E, wysokość: 16 m

Aktualna obserwacja pogody

Raport powstał 6 minut temu, godzina 07:20 UTC
Wiatr 3 kt od południowy zachód
Temperatura 15°C
Wilgotność 67%
Ciśnienie 1024 hPa
Widzialność 10 km lub więcej
Brak chmur poniżej 1500 m i brak chmur cumulonimbus

METAR: EKRN 230720Z 23003KT CAVOK 15/09 Q1024

czas: 09:26 (07:26 UTC)

Prognoza

Raport powstał 2 godziny i 3 minut temu, godzina 05:23 UTC
Prognoza ważna od 23 godzina 06 UTC do 23 godzina 15 UTC
Wiatr 4 kt z kierunków zmiennych
Widzialność 10 km lub więcej
Brak chmur poniżej 1500 m i brak chmur cumulonimbus

TAF: EKRN 230523Z 2306/2315 VRB04KT CAVOK

Obserwacja i prognoza pogody dla ponad 4000 lotnisk (raport METAR i TAF).

Dostępne stacje oznaczono żółtymi i czerwonymi punktami na mapie.

Najedź kursorem aby zobaczyć nazwę stacji.

Kliknij aby zobaczyć obserwacje i prognozy pogody.

Aby zmienić mapę: kliknij na zielony przycisk z czarnym krzyżykiem, aby powiększyć; na zielony przycisk z myślnikiem, aby pomniejszyć; na zielone strzałki, aby przejść do map sąsiednich.


METAR-TAF: